sensor_id;sensor_type;location;lat;lon;timestamp;pressure;altitude;pressure_sealevel;temperature;humidity
33286;BME280;19656;50.096;20.014;2023-03-03T00:04:15;99315.30;;;3.11;61.57
33286;BME280;19656;50.096;20.014;2023-03-03T00:09:18;99307.66;;;3.02;61.53
33286;BME280;19656;50.096;20.014;2023-03-03T00:14:29;99303.21;;;2.91;61.86
33286;BME280;19656;50.096;20.014;2023-03-03T00:19:37;99304.25;;;2.85;61.84
33286;BME280;19656;50.096;20.014;2023-03-03T00:24:42;99300.09;;;2.77;62.32
33286;BME280;19656;50.096;20.014;2023-03-03T00:29:47;99295.27;;;2.74;62.15
33286;BME280;19656;50.096;20.014;2023-03-03T00:34:55;99291.55;;;2.69;62.14
33286;BME280;19656;50.096;20.014;2023-03-03T00:40:25;99289.88;;;2.66;62.07
33286;BME280;19656;50.096;20.014;2023-03-03T00:45:33;99281.43;;;2.60;62.10
33286;BME280;19656;50.096;20.014;2023-03-03T00:50:42;99278.10;;;2.53;62.41
33286;BME280;19656;50.096;20.014;2023-03-03T00:55:47;99280.61;;;2.51;62.19
33286;BME280;19656;50.096;20.014;2023-03-03T01:00:53;99273.55;;;2.47;62.20
33286;BME280;19656;50.096;20.014;2023-03-03T01:06:00;99273.53;;;2.41;62.33
33286;BME280;19656;50.096;20.014;2023-03-03T01:11:08;99272.41;;;2.36;62.26
33286;BME280;19656;50.096;20.014;2023-03-03T01:16:13;99272.40;;;2.30;62.48
33286;BME280;19656;50.096;20.014;2023-03-03T01:21:16;99268.73;;;2.23;62.69
33286;BME280;19656;50.096;20.014;2023-03-03T01:26:20;99262.23;;;2.23;62.65
33286;BME280;19656;50.096;20.014;2023-03-03T01:31:23;99262.45;;;2.22;62.55
33286;BME280;19656;50.096;20.014;2023-03-03T01:36:27;99257.23;;;2.20;62.71
33286;BME280;19656;50.096;20.014;2023-03-03T01:41:31;99252.76;;;2.17;62.58
33286;BME280;19656;50.096;20.014;2023-03-03T01:51:56;99252.80;;;2.08;62.57
33286;BME280;19656;50.096;20.014;2023-03-03T01:57:04;99250.08;;;2.05;62.69
33286;BME280;19656;50.096;20.014;2023-03-03T02:02:09;99248.10;;;2.07;62.75
33286;BME280;19656;50.096;20.014;2023-03-03T02:07:14;99255.20;;;2.03;62.82
33286;BME280;19656;50.096;20.014;2023-03-03T02:12:20;99261.75;;;2.00;62.79
33286;BME280;19656;50.096;20.014;2023-03-03T02:17:24;99262.45;;;2.00;62.99
33286;BME280;19656;50.096;20.014;2023-03-03T02:22:47;99262.99;;;1.99;62.94
33286;BME280;19656;50.096;20.014;2023-03-03T02:27:52;99265.75;;;1.94;62.89
33286;BME280;19656;50.096;20.014;2023-03-03T02:32:56;99261.35;;;1.95;63.07
33286;BME280;19656;50.096;20.014;2023-03-03T02:38:24;99263.44;;;1.95;63.00
33286;BME280;19656;50.096;20.014;2023-03-03T02:43:41;99264.41;;;1.91;63.00
33286;BME280;19656;50.096;20.014;2023-03-03T02:48:48;99257.44;;;1.89;63.27
33286;BME280;19656;50.096;20.014;2023-03-03T02:53:51;99254.97;;;1.83;63.33
33286;BME280;19656;50.096;20.014;2023-03-03T02:58:55;99249.95;;;1.80;63.30
33286;BME280;19656;50.096;20.014;2023-03-03T03:03:58;99247.48;;;1.82;63.42
33286;BME280;19656;50.096;20.014;2023-03-03T03:09:04;99246.56;;;1.76;63.52
33286;BME280;19656;50.096;20.014;2023-03-03T03:14:08;99251.22;;;1.71;63.45
33286;BME280;19656;50.096;20.014;2023-03-03T03:19:13;99247.48;;;1.67;63.64
33286;BME280;19656;50.096;20.014;2023-03-03T03:24:17;99245.40;;;1.65;63.72
33286;BME280;19656;50.096;20.014;2023-03-03T03:29:27;99244.73;;;1.64;63.82
33286;BME280;19656;50.096;20.014;2023-03-03T03:34:30;99246.20;;;1.68;64.29
33286;BME280;19656;50.096;20.014;2023-03-03T03:39:35;99244.83;;;1.75;63.98
33286;BME280;19656;50.096;20.014;2023-03-03T03:44:38;99246.57;;;1.76;63.97
33286;BME280;19656;50.096;20.014;2023-03-03T03:49:42;99248.03;;;1.81;63.77
33286;BME280;19656;50.096;20.014;2023-03-03T03:54:45;99246.89;;;1.78;63.69
33286;BME280;19656;50.096;20.014;2023-03-03T03:59:49;99245.50;;;1.84;63.96
33286;BME280;19656;50.096;20.014;2023-03-03T04:04:52;99247.43;;;1.84;63.19
33286;BME280;19656;50.096;20.014;2023-03-03T04:09:56;99251.11;;;1.76;63.24
33286;BME280;19656;50.096;20.014;2023-03-03T04:14:59;99242.51;;;1.70;63.23
33286;BME280;19656;50.096;20.014;2023-03-03T04:20:05;99235.33;;;1.62;63.20
33286;BME280;19656;50.096;20.014;2023-03-03T04:25:12;99243.40;;;1.53;63.25
33286;BME280;19656;50.096;20.014;2023-03-03T04:30:17;99250.98;;;1.50;63.40
33286;BME280;19656;50.096;20.014;2023-03-03T04:35:22;99251.15;;;1.43;63.48
33286;BME280;19656;50.096;20.014;2023-03-03T04:40:26;99250.06;;;1.44;63.89
33286;BME280;19656;50.096;20.014;2023-03-03T04:45:30;99248.83;;;1.53;63.70
33286;BME280;19656;50.096;20.014;2023-03-03T04:50:33;99241.08;;;1.63;63.33
33286;BME280;19656;50.096;20.014;2023-03-03T04:55:38;99242.98;;;1.64;63.03
33286;BME280;19656;50.096;20.014;2023-03-03T05:00:41;99244.34;;;1.67;63.06
33286;BME280;19656;50.096;20.014;2023-03-03T05:05:46;99245.73;;;1.66;62.82
33286;BME280;19656;50.096;20.014;2023-03-03T05:10:53;99250.36;;;1.62;62.90
33286;BME280;19656;50.096;20.014;2023-03-03T05:15:57;99246.30;;;1.57;62.76
33286;BME280;19656;50.096;20.014;2023-03-03T05:21:00;99245.12;;;1.47;62.71
33286;BME280;19656;50.096;20.014;2023-03-03T05:26:04;99248.65;;;1.37;62.96
33286;BME280;19656;50.096;20.014;2023-03-03T05:31:07;99254.05;;;1.37;63.29
33286;BME280;19656;50.096;20.014;2023-03-03T05:36:10;99255.83;;;1.37;63.51
33286;BME280;19656;50.096;20.014;2023-03-03T05:41:14;99262.83;;;1.36;63.85
33286;BME280;19656;50.096;20.014;2023-03-03T05:46:17;99268.66;;;1.41;64.44
33286;BME280;19656;50.096;20.014;2023-03-03T05:51:21;99272.25;;;1.54;64.79
33286;BME280;19656;50.096;20.014;2023-03-03T05:56:24;99281.05;;;1.66;64.58
33286;BME280;19656;50.096;20.014;2023-03-03T06:01:28;99281.96;;;1.73;65.01
33286;BME280;19656;50.096;20.014;2023-03-03T06:06:31;99279.55;;;1.87;65.41
33286;BME280;19656;50.096;20.014;2023-03-03T06:11:34;99285.30;;;2.02;65.11
33286;BME280;19656;50.096;20.014;2023-03-03T06:16:39;99289.48;;;2.11;64.93
33286;BME280;19656;50.096;20.014;2023-03-03T06:21:42;99295.94;;;2.19;64.79
33286;BME280;19656;50.096;20.014;2023-03-03T06:26:46;99305.21;;;2.27;64.76
33286;BME280;19656;50.096;20.014;2023-03-03T06:31:50;99306.58;;;2.35;64.51
33286;BME280;19656;50.096;20.014;2023-03-03T06:36:54;99308.36;;;2.41;64.28
33286;BME280;19656;50.096;20.014;2023-03-03T06:41:58;99308.50;;;2.42;64.18
33286;BME280;19656;50.096;20.014;2023-03-03T06:47:02;99306.59;;;2.49;64.34
33286;BME280;19656;50.096;20.014;2023-03-03T06:52:19;99306.33;;;2.53;64.10
33286;BME280;19656;50.096;20.014;2023-03-03T06:57:32;99300.42;;;2.57;63.90
33286;BME280;19656;50.096;20.014;2023-03-03T07:02:36;99299.77;;;2.69;63.63
33286;BME280;19656;50.096;20.014;2023-03-03T07:07:39;99297.95;;;2.79;63.35
33286;BME280;19656;50.096;20.014;2023-03-03T07:12:43;99281.05;;;2.94;63.13
33286;BME280;19656;50.096;20.014;2023-03-03T07:17:54;99290.19;;;3.00;63.54
33286;BME280;19656;50.096;20.014;2023-03-03T07:23:09;99294.88;;;3.01;63.52
33286;BME280;19656;50.096;20.014;2023-03-03T07:28:23;99300.63;;;3.09;63.41
33286;BME280;19656;50.096;20.014;2023-03-03T07:33:34;99292.30;;;3.13;63.72
33286;BME280;19656;50.096;20.014;2023-03-03T07:38:41;99267.98;;;3.23;63.68
33286;BME280;19656;50.096;20.014;2023-03-03T07:44:03;99273.02;;;3.37;63.42
33286;BME280;19656;50.096;20.014;2023-03-03T07:54:35;99269.31;;;3.43;63.09
33286;BME280;19656;50.096;20.014;2023-03-03T07:59:47;99282.89;;;3.53;62.73
33286;BME280;19656;50.096;20.014;2023-03-03T08:04:51;99281.42;;;3.62;62.81
33286;BME280;19656;50.096;20.014;2023-03-03T08:09:58;99264.11;;;3.71;62.57
33286;BME280;19656;50.096;20.014;2023-03-03T08:20:40;99265.69;;;3.82;62.45
33286;BME280;19656;50.096;20.014;2023-03-03T08:25:46;99272.38;;;3.93;62.29
33286;BME280;19656;50.096;20.014;2023-03-03T08:30:50;99279.48;;;3.96;62.18
33286;BME280;19656;50.096;20.014;2023-03-03T08:36:11;99286.20;;;3.94;62.27
33286;BME280;19656;50.096;20.014;2023-03-03T08:41:15;99274.36;;;4.13;62.44
33286;BME280;19656;50.096;20.014;2023-03-03T08:46:18;99271.43;;;4.23;62.08
33286;BME280;19656;50.096;20.014;2023-03-03T08:51:22;99270.80;;;4.15;61.84
33286;BME280;19656;50.096;20.014;2023-03-03T08:56:25;99280.89;;;4.24;62.15
33286;BME280;19656;50.096;20.014;2023-03-03T09:01:31;99283.77;;;4.32;61.86
33286;BME280;19656;50.096;20.014;2023-03-03T09:06:34;99286.29;;;4.36;61.84
33286;BME280;19656;50.096;20.014;2023-03-03T09:11:38;99285.31;;;4.44;61.60
33286;BME280;19656;50.096;20.014;2023-03-03T09:16:50;99286.59;;;4.53;61.63
33286;BME280;19656;50.096;20.014;2023-03-03T09:21:58;99281.20;;;4.62;61.45
33286;BME280;19656;50.096;20.014;2023-03-03T09:27:33;99276.41;;;4.68;61.07
33286;BME280;19656;50.096;20.014;2023-03-03T09:32:38;99268.48;;;4.74;60.88
33286;BME280;19656;50.096;20.014;2023-03-03T09:37:42;99267.67;;;4.82;60.95
33286;BME280;19656;50.096;20.014;2023-03-03T09:42:58;99272.36;;;4.84;60.59
33286;BME280;19656;50.096;20.014;2023-03-03T09:48:26;99273.30;;;4.87;60.87
33286;BME280;19656;50.096;20.014;2023-03-03T10:21:16;99301.36;;;5.23;60.42
33286;BME280;19656;50.096;20.014;2023-03-03T10:26:37;99295.91;;;5.24;60.33
33286;BME280;19656;50.096;20.014;2023-03-03T10:31:54;99299.08;;;5.33;60.94
33286;BME280;19656;50.096;20.014;2023-03-03T10:37:08;99296.63;;;5.47;60.51
33286;BME280;19656;50.096;20.014;2023-03-03T10:53:30;99291.55;;;5.61;60.10
33286;BME280;19656;50.096;20.014;2023-03-03T11:04:13;99298.08;;;5.79;59.78
33286;BME280;19656;50.096;20.014;2023-03-03T11:09:32;99299.45;;;5.71;59.47
33286;BME280;19656;50.096;20.014;2023-03-03T11:20:30;99307.77;;;5.55;58.29
33286;BME280;19656;50.096;20.014;2023-03-03T11:31:04;99313.60;;;5.26;57.73
33286;BME280;19656;50.096;20.014;2023-03-03T11:36:17;99307.20;;;5.23;57.54
33286;BME280;19656;50.096;20.014;2023-03-03T11:41:29;99308.35;;;5.20;57.46
33286;BME280;19656;50.096;20.014;2023-03-03T11:46:43;99306.12;;;5.18;57.58
33286;BME280;19656;50.096;20.014;2023-03-03T12:02:25;99300.64;;;5.09;57.32
33286;BME280;19656;50.096;20.014;2023-03-03T12:07:40;99300.86;;;5.03;57.28
33286;BME280;19656;50.096;20.014;2023-03-03T12:13:09;99298.02;;;4.84;57.56
33286;BME280;19656;50.096;20.014;2023-03-03T12:34:39;99294.90;;;4.88;58.12
33286;BME280;19656;50.096;20.014;2023-03-03T12:44:56;99291.31;;;4.89;57.72
33286;BME280;19656;50.096;20.014;2023-03-03T13:01:08;99270.95;;;4.64;57.96
33286;BME280;19656;50.096;20.014;2023-03-03T13:06:38;99270.05;;;4.59;57.87
33286;BME280;19656;50.096;20.014;2023-03-03T13:22:47;99268.27;;;4.39;58.17
33286;BME280;19656;50.096;20.014;2023-03-03T13:28:06;99272.08;;;4.30;58.45
33286;BME280;19656;50.096;20.014;2023-03-03T13:38:40;99284.38;;;4.30;58.21
33286;BME280;19656;50.096;20.014;2023-03-03T13:44:04;99286.66;;;4.08;58.07
33286;BME280;19656;50.096;20.014;2023-03-03T13:49:22;99281.00;;;3.87;58.41
33286;BME280;19656;50.096;20.014;2023-03-03T14:10:33;99277.48;;;4.20;57.46
33286;BME280;19656;50.096;20.014;2023-03-03T14:20:54;99268.71;;;4.30;57.22
33286;BME280;19656;50.096;20.014;2023-03-03T14:26:09;99263.43;;;4.31;56.89
33286;BME280;19656;50.096;20.014;2023-03-03T14:31:22;99267.86;;;4.25;56.86
33286;BME280;19656;50.096;20.014;2023-03-03T14:36:32;99269.56;;;4.21;57.13
33286;BME280;19656;50.096;20.014;2023-03-03T14:41:39;99269.67;;;4.22;56.97
33286;BME280;19656;50.096;20.014;2023-03-03T14:46:44;99269.20;;;4.27;57.33
33286;BME280;19656;50.096;20.014;2023-03-03T14:51:48;99264.83;;;4.26;56.93
33286;BME280;19656;50.096;20.014;2023-03-03T15:17:42;99265.92;;;4.30;56.51
33286;BME280;19656;50.096;20.014;2023-03-03T15:22:50;99265.23;;;4.24;56.61
33286;BME280;19656;50.096;20.014;2023-03-03T15:49:42;99254.33;;;3.98;56.88
33286;BME280;19656;50.096;20.014;2023-03-03T16:05:14;99267.48;;;3.93;56.62
33286;BME280;19656;50.096;20.014;2023-03-03T16:16:19;99275.15;;;4.00;56.92
33286;BME280;19656;50.096;20.014;2023-03-03T16:21:50;99271.95;;;4.00;56.32
33286;BME280;19656;50.096;20.014;2023-03-03T16:27:09;99270.95;;;3.99;56.89
33286;BME280;19656;50.096;20.014;2023-03-03T16:32:47;99271.31;;;3.93;56.77
33286;BME280;19656;50.096;20.014;2023-03-03T16:38:05;99280.09;;;3.88;56.76
33286;BME280;19656;50.096;20.014;2023-03-03T16:49:20;99298.34;;;3.70;57.01
33286;BME280;19656;50.096;20.014;2023-03-03T16:54:56;99295.45;;;3.78;56.71
33286;BME280;19656;50.096;20.014;2023-03-03T17:00:13;99296.55;;;3.77;56.61
33286;BME280;19656;50.096;20.014;2023-03-03T17:05:43;99302.54;;;3.76;56.39
33286;BME280;19656;50.096;20.014;2023-03-03T17:16:13;99299.64;;;3.68;56.78
33286;BME280;19656;50.096;20.014;2023-03-03T17:37:37;99284.11;;;3.88;57.23
33286;BME280;19656;50.096;20.014;2023-03-03T18:25:10;99298.58;;;3.80;56.87
33286;BME280;19656;50.096;20.014;2023-03-03T18:40:49;99301.26;;;3.85;57.37
33286;BME280;19656;50.096;20.014;2023-03-03T18:45:53;99304.52;;;3.81;57.70
33286;BME280;19656;50.096;20.014;2023-03-03T18:50:57;99290.85;;;3.80;57.89
33286;BME280;19656;50.096;20.014;2023-03-03T18:56:08;99288.00;;;3.82;57.73
33286;BME280;19656;50.096;20.014;2023-03-03T19:01:42;99281.02;;;3.81;57.88
33286;BME280;19656;50.096;20.014;2023-03-03T19:06:53;99283.41;;;3.71;57.74
33286;BME280;19656;50.096;20.014;2023-03-03T19:11:58;99281.61;;;3.73;58.34
33286;BME280;19656;50.096;20.014;2023-03-03T19:22:25;99265.11;;;3.67;57.89
33286;BME280;19656;50.096;20.014;2023-03-03T19:27:34;99259.52;;;3.61;57.78
33286;BME280;19656;50.096;20.014;2023-03-03T19:32:54;99266.00;;;3.55;57.79
33286;BME280;19656;50.096;20.014;2023-03-03T19:38:15;99274.73;;;3.44;58.01
33286;BME280;19656;50.096;20.014;2023-03-03T19:59:17;99267.86;;;3.21;59.07
33286;BME280;19656;50.096;20.014;2023-03-03T20:15:21;99263.23;;;3.17;59.68
33286;BME280;19656;50.096;20.014;2023-03-03T20:31:05;99267.52;;;3.09;59.89
33286;BME280;19656;50.096;20.014;2023-03-03T20:36:17;99264.81;;;3.05;60.09
33286;BME280;19656;50.096;20.014;2023-03-03T20:46:57;99261.33;;;2.98;60.41
33286;BME280;19656;50.096;20.014;2023-03-03T20:52:26;99257.15;;;2.97;60.36
33286;BME280;19656;50.096;20.014;2023-03-03T20:57:42;99262.85;;;2.94;60.87
33286;BME280;19656;50.096;20.014;2023-03-03T21:02:56;99264.38;;;2.83;61.16
33286;BME280;19656;50.096;20.014;2023-03-03T21:08:04;99260.25;;;2.86;61.60
33286;BME280;19656;50.096;20.014;2023-03-03T21:13:34;99258.42;;;2.82;61.55
33286;BME280;19656;50.096;20.014;2023-03-03T21:18:39;99252.44;;;2.83;61.86
33286;BME280;19656;50.096;20.014;2023-03-03T21:23:42;99242.33;;;2.69;62.10
33286;BME280;19656;50.096;20.014;2023-03-03T21:28:59;99235.00;;;2.74;62.42
33286;BME280;19656;50.096;20.014;2023-03-03T21:34:20;99234.02;;;2.84;62.52
33286;BME280;19656;50.096;20.014;2023-03-03T21:44:48;99215.53;;;2.94;62.45
33286;BME280;19656;50.096;20.014;2023-03-03T21:49:52;99211.48;;;2.88;62.15
33286;BME280;19656;50.096;20.014;2023-03-03T21:54:55;99203.22;;;2.77;62.61
33286;BME280;19656;50.096;20.014;2023-03-03T21:59:59;99201.95;;;2.84;62.61
33286;BME280;19656;50.096;20.014;2023-03-03T22:05:03;99205.29;;;2.91;62.56
33286;BME280;19656;50.096;20.014;2023-03-03T22:10:09;99201.83;;;2.89;62.56
33286;BME280;19656;50.096;20.014;2023-03-03T22:15:13;99193.49;;;2.80;62.88
33286;BME280;19656;50.096;20.014;2023-03-03T22:20:16;99190.92;;;2.84;62.60
33286;BME280;19656;50.096;20.014;2023-03-03T22:25:19;99181.61;;;2.79;62.77
33286;BME280;19656;50.096;20.014;2023-03-03T22:30:23;99173.86;;;2.74;63.03
33286;BME280;19656;50.096;20.014;2023-03-03T22:35:26;99169.96;;;2.64;63.22
33286;BME280;19656;50.096;20.014;2023-03-03T22:40:29;99165.64;;;2.61;63.33
33286;BME280;19656;50.096;20.014;2023-03-03T22:45:33;99149.92;;;2.66;63.53
33286;BME280;19656;50.096;20.014;2023-03-03T22:50:37;99139.26;;;2.71;63.31
33286;BME280;19656;50.096;20.014;2023-03-03T22:55:42;99131.66;;;2.79;63.20
33286;BME280;19656;50.096;20.014;2023-03-03T23:00:46;99122.44;;;2.83;63.36
33286;BME280;19656;50.096;20.014;2023-03-03T23:05:50;99131.51;;;2.73;63.41
33286;BME280;19656;50.096;20.014;2023-03-03T23:10:54;99125.71;;;2.73;63.68
33286;BME280;19656;50.096;20.014;2023-03-03T23:15:58;99127.84;;;2.72;63.79
33286;BME280;19656;50.096;20.014;2023-03-03T23:21:02;99121.90;;;2.60;63.92
33286;BME280;19656;50.096;20.014;2023-03-03T23:26:06;99114.23;;;2.46;64.29
33286;BME280;19656;50.096;20.014;2023-03-03T23:31:09;99099.95;;;2.43;64.55
33286;BME280;19656;50.096;20.014;2023-03-03T23:36:16;99100.73;;;2.47;64.51
33286;BME280;19656;50.096;20.014;2023-03-03T23:41:20;99101.19;;;2.43;64.70
33286;BME280;19656;50.096;20.014;2023-03-03T23:46:23;99096.08;;;2.50;64.66
33286;BME280;19656;50.096;20.014;2023-03-03T23:51:26;99084.55;;;2.55;64.59
33286;BME280;19656;50.096;20.014;2023-03-03T23:56:29;99095.08;;;2.60;64.51
